sensor_id;sensor_type;location;lat;lon;timestamp;pressure;altitude;pressure_sealevel;temperature;humidity
5500;BME280;2772;42.700;23.304;2022-07-06T00:02:12;95033.44;;;23.00;100.00
5500;BME280;2772;42.700;23.304;2022-07-06T00:04:39;95030.34;;;23.02;100.00
5500;BME280;2772;42.700;23.304;2022-07-06T00:07:06;95035.78;;;23.05;100.00
5500;BME280;2772;42.700;23.304;2022-07-06T00:09:34;95032.66;;;22.96;100.00
5500;BME280;2772;42.700;23.304;2022-07-06T00:12:01;95040.03;;;22.92;100.00
5500;BME280;2772;42.700;23.304;2022-07-06T00:14:28;95033.41;;;22.76;100.00
5500;BME280;2772;42.700;23.304;2022-07-06T00:16:55;95030.66;;;22.58;100.00
5500;BME280;2772;42.700;23.304;2022-07-06T00:19:22;95037.28;;;22.68;100.00
5500;BME280;2772;42.700;23.304;2022-07-06T00:21:49;95047.72;;;22.62;100.00
5500;BME280;2772;42.700;23.304;2022-07-06T00:24:15;95049.25;;;22.53;100.00
5500;BME280;2772;42.700;23.304;2022-07-06T00:26:45;95057.63;;;22.27;100.00
5500;BME280;2772;42.700;23.304;2022-07-06T00:29:11;95059.53;;;22.12;100.00
5500;BME280;2772;42.700;23.304;2022-07-06T00:31:38;95056.88;;;22.26;100.00
5500;BME280;2772;42.700;23.304;2022-07-06T00:34:05;95056.91;;;22.33;100.00
5500;BME280;2772;42.700;23.304;2022-07-06T00:36:32;95057.66;;;22.23;100.00
5500;BME280;2772;42.700;23.304;2022-07-06T00:38:59;95058.03;;;22.25;100.00
5500;BME280;2772;42.700;23.304;2022-07-06T00:41:25;95057.31;;;22.35;100.00
5500;BME280;2772;42.700;23.304;2022-07-06T00:43:55;95065.47;;;22.39;100.00
5500;BME280;2772;42.700;23.304;2022-07-06T00:46:27;95058.84;;;22.36;100.00
5500;BME280;2772;42.700;23.304;2022-07-06T00:48:55;95065.84;;;22.37;100.00
5500;BME280;2772;42.700;23.304;2022-07-06T00:51:25;95069.38;;;22.45;100.00
5500;BME280;2772;42.700;23.304;2022-07-06T00:53:53;95060.06;;;22.46;100.00
5500;BME280;2772;42.700;23.304;2022-07-06T00:56:21;95057.72;;;22.37;100.00
5500;BME280;2772;42.700;23.304;2022-07-06T00:58:48;95050.69;;;22.36;100.00
5500;BME280;2772;42.700;23.304;2022-07-06T01:01:17;95041.41;;;22.37;100.00
5500;BME280;2772;42.700;23.304;2022-07-06T01:03:43;95038.31;;;22.35;100.00
5500;BME280;2772;42.700;23.304;2022-07-06T01:06:10;95023.16;;;22.27;100.00
5500;BME280;2772;42.700;23.304;2022-07-06T01:08:38;95020.06;;;22.29;100.00
5500;BME280;2772;42.700;23.304;2022-07-06T01:11:05;95023.16;;;22.31;100.00
5500;BME280;2772;42.700;23.304;2022-07-06T01:13:33;95008.44;;;22.32;100.00
5500;BME280;2772;42.700;23.304;2022-07-06T01:16:00;95021.63;;;22.37;100.00
5500;BME280;2772;42.700;23.304;2022-07-06T01:18:28;95024.31;;;22.33;100.00
5500;BME280;2772;42.700;23.304;2022-07-06T01:21:07;95015.41;;;22.36;100.00
5500;BME280;2772;42.700;23.304;2022-07-06T01:23:39;95015.75;;;22.21;100.00
5500;BME280;2772;42.700;23.304;2022-07-06T01:26:09;95019.28;;;22.25;100.00
5500;BME280;2772;42.700;23.304;2022-07-06T01:28:36;95014.91;;;22.06;100.00
5500;BME280;2772;42.700;23.304;2022-07-06T01:31:03;95014.91;;;22.06;100.00
5500;BME280;2772;42.700;23.304;2022-07-06T01:33:29;95016.06;;;21.98;100.00
5500;BME280;2772;42.700;23.304;2022-07-06T01:35:56;95021.84;;;21.93;100.00
5500;BME280;2772;42.700;23.304;2022-07-06T01:38:25;95016.78;;;21.91;100.00
5500;BME280;2772;42.700;23.304;2022-07-06T01:40:51;95016.00;;;21.91;100.00
5500;BME280;2772;42.700;23.304;2022-07-06T01:43:18;95014.84;;;21.88;100.00
5500;BME280;2772;42.700;23.304;2022-07-06T01:45:45;95021.28;;;21.73;100.00
5500;BME280;2772;42.700;23.304;2022-07-06T01:48:12;95018.53;;;21.63;100.00
5500;BME280;2772;42.700;23.304;2022-07-06T01:50:39;95008.34;;;21.46;100.00
5500;BME280;2772;42.700;23.304;2022-07-06T01:53:05;95020.72;;;21.43;100.00
5500;BME280;2772;42.700;23.304;2022-07-06T01:55:34;95018.41;;;21.42;100.00
5500;BME280;2772;42.700;23.304;2022-07-06T01:58:00;95021.84;;;21.35;100.00
5500;BME280;2772;42.700;23.304;2022-07-06T02:00:27;95024.19;;;21.40;100.00
5500;BME280;2772;42.700;23.304;2022-07-06T02:02:54;95033.00;;;21.30;100.00
5500;BME280;2772;42.700;23.304;2022-07-06T02:05:21;95025.25;;;21.29;100.00
5500;BME280;2772;42.700;23.304;2022-07-06T02:07:48;95024.13;;;21.33;100.00
5500;BME280;2772;42.700;23.304;2022-07-06T02:10:15;95027.66;;;21.41;100.00
5500;BME280;2772;42.700;23.304;2022-07-06T02:12:43;95024.19;;;21.40;100.00
5500;BME280;2772;42.700;23.304;2022-07-06T02:15:10;95032.38;;;21.47;100.00
5500;BME280;2772;42.700;23.304;2022-07-06T02:17:37;95026.16;;;21.47;100.00
5500;BME280;2772;42.700;23.304;2022-07-06T02:20:05;95029.66;;;21.47;100.00
5500;BME280;2772;42.700;23.304;2022-07-06T02:22:32;95023.41;;;21.40;100.00
5500;BME280;2772;42.700;23.304;2022-07-06T02:24:59;95017.53;;;21.31;100.00
5500;BME280;2772;42.700;23.304;2022-07-06T02:27:26;95020.63;;;21.33;100.00
5500;BME280;2772;42.700;23.304;2022-07-06T02:29:54;95014.00;;;21.27;100.00
5500;BME280;2772;42.700;23.304;2022-07-06T02:32:21;95014.78;;;21.24;100.00
5500;BME280;2772;42.700;23.304;2022-07-06T02:34:47;95007.47;;;21.28;100.00
5500;BME280;2772;42.700;23.304;2022-07-06T02:37:14;95015.94;;;21.23;100.00
5500;BME280;2772;42.700;23.304;2022-07-06T02:39:41;95020.09;;;21.13;100.00
5500;BME280;2772;42.700;23.304;2022-07-06T02:42:08;95019.34;;;21.16;100.00
5500;BME280;2772;42.700;23.304;2022-07-06T02:44:35;95024.41;;;21.18;100.00
5500;BME280;2772;42.700;23.304;2022-07-06T02:47:03;95016.94;;;21.08;100.00
5500;BME280;2772;42.700;23.304;2022-07-06T02:49:30;95018.13;;;21.07;100.00
5500;BME280;2772;42.700;23.304;2022-07-06T02:51:57;95017.41;;;21.13;100.00
5500;BME280;2772;42.700;23.304;2022-07-06T02:54:24;95024.41;;;21.18;100.00
5500;BME280;2772;42.700;23.304;2022-07-06T02:56:50;95016.69;;;21.23;100.00
5500;BME280;2772;42.700;23.304;2022-07-06T02:59:18;95026.44;;;21.31;100.00
5500;BME280;2772;42.700;23.304;2022-07-06T03:01:45;95019.09;;;21.32;100.00
5500;BME280;2772;42.700;23.304;2022-07-06T03:04:13;95035.00;;;21.37;100.00
5500;BME280;2772;42.700;23.304;2022-07-06T03:06:40;95033.09;;;21.41;100.00
5500;BME280;2772;42.700;23.304;2022-07-06T03:09:07;95040.84;;;21.42;100.00
5500;BME280;2772;42.700;23.304;2022-07-06T03:11:34;95035.41;;;21.39;100.00
5500;BME280;2772;42.700;23.304;2022-07-06T03:14:02;95045.09;;;21.40;100.00
5500;BME280;2772;42.700;23.304;2022-07-06T03:16:29;95045.50;;;21.42;100.00
5500;BME280;2772;42.700;23.304;2022-07-06T03:18:56;95041.94;;;21.34;100.00
5500;BME280;2772;42.700;23.304;2022-07-06T03:21:24;95034.56;;;21.31;100.00
5500;BME280;2772;42.700;23.304;2022-07-06T03:23:51;95043.94;;;21.41;100.00
5500;BME280;2772;42.700;23.304;2022-07-06T03:26:18;95055.97;;;21.43;100.00
5500;BME280;2772;42.700;23.304;2022-07-06T03:28:45;95061.78;;;21.45;100.00
5500;BME280;2772;42.700;23.304;2022-07-06T03:31:12;95059.06;;;21.45;100.00
5500;BME280;2772;42.700;23.304;2022-07-06T03:33:39;95060.63;;;21.46;100.00
5500;BME280;2772;42.700;23.304;2022-07-06T03:36:06;95063.34;;;21.50;100.00
5500;BME280;2772;42.700;23.304;2022-07-06T03:38:35;95066.88;;;21.54;100.00
5500;BME280;2772;42.700;23.304;2022-07-06T03:41:03;95068.72;;;21.43;100.00
5500;BME280;2772;42.700;23.304;2022-07-06T03:43:29;95071.06;;;21.44;100.00
5500;BME280;2772;42.700;23.304;2022-07-06T03:45:56;95070.72;;;21.49;100.00
5500;BME280;2772;42.700;23.304;2022-07-06T03:48:23;95076.88;;;21.43;100.00
5500;BME280;2772;42.700;23.304;2022-07-06T03:50:50;95067.13;;;21.35;100.00
5500;BME280;2772;42.700;23.304;2022-07-06T03:53:17;95072.53;;;21.35;100.00
5500;BME280;2772;42.700;23.304;2022-07-06T03:55:45;95066.44;;;21.45;100.00
5500;BME280;2772;42.700;23.304;2022-07-06T03:58:32;95068.38;;;21.48;100.00
5500;BME280;2772;42.700;23.304;2022-07-06T04:00:59;95077.72;;;21.54;100.00
5500;BME280;2772;42.700;23.304;2022-07-06T04:03:26;95078.63;;;21.72;100.00
5500;BME280;2772;42.700;23.304;2022-07-06T04:05:53;95074.13;;;21.90;100.00
5500;BME280;2772;42.700;23.304;2022-07-06T04:08:20;95091.59;;;21.96;100.00
5500;BME280;2772;42.700;23.304;2022-07-06T04:10:48;95090.13;;;22.06;100.00
5500;BME280;2772;42.700;23.304;2022-07-06T04:13:15;95090.50;;;22.11;100.00
5500;BME280;2772;42.700;23.304;2022-07-06T04:15:42;95084.44;;;22.35;100.00
5500;BME280;2772;42.700;23.304;2022-07-06T04:18:09;95089.56;;;22.51;100.00
5500;BME280;2772;42.700;23.304;2022-07-06T04:20:35;95097.34;;;22.59;100.00
5500;BME280;2772;42.700;23.304;2022-07-06T04:23:03;95095.03;;;22.54;100.00
5500;BME280;2772;42.700;23.304;2022-07-06T04:25:30;95097.69;;;22.51;100.00
5500;BME280;2772;42.700;23.304;2022-07-06T04:27:58;95096.50;;;22.48;100.00
5500;BME280;2772;42.700;23.304;2022-07-06T04:30:25;95107.41;;;22.52;100.00
5500;BME280;2772;42.700;23.304;2022-07-06T04:32:52;95107.09;;;22.67;100.00
5500;BME280;2772;42.700;23.304;2022-07-06T04:35:20;95112.19;;;22.79;100.00
5500;BME280;2772;42.700;23.304;2022-07-06T04:37:47;95126.22;;;22.99;100.00
5500;BME280;2772;42.700;23.304;2022-07-06T04:40:14;95126.22;;;22.92;100.00
5500;BME280;2772;42.700;23.304;2022-07-06T04:42:41;95140.53;;;22.82;100.00
5500;BME280;2772;42.700;23.304;2022-07-06T04:45:10;95134.69;;;22.73;100.00
5500;BME280;2772;42.700;23.304;2022-07-06T04:47:37;95140.53;;;22.82;100.00
5500;BME280;2772;42.700;23.304;2022-07-06T04:50:05;95139.38;;;22.90;100.00
5500;BME280;2772;42.700;23.304;2022-07-06T04:52:32;95150.59;;;22.78;100.00
5500;BME280;2772;42.700;23.304;2022-07-06T04:54:59;95151.19;;;22.47;100.00
5500;BME280;2772;42.700;23.304;2022-07-06T04:57:25;95155.84;;;22.43;100.00
5500;BME280;2772;42.700;23.304;2022-07-06T04:59:55;95140.72;;;22.45;100.00
5500;BME280;2772;42.700;23.304;2022-07-06T05:02:23;95155.03;;;22.39;100.00
5500;BME280;2772;42.700;23.304;2022-07-06T05:04:50;95146.81;;;22.25;100.00
5500;BME280;2772;42.700;23.304;2022-07-06T05:07:17;95153.38;;;22.24;100.00
5500;BME280;2772;42.700;23.304;2022-07-06T05:09:44;95154.63;;;22.33;100.00
5500;BME280;2772;42.700;23.304;2022-07-06T05:12:11;95158.44;;;22.22;100.00
5500;BME280;2772;42.700;23.304;2022-07-06T05:14:37;95158.44;;;22.25;100.00
5500;BME280;2772;42.700;23.304;2022-07-06T05:17:04;95164.28;;;22.27;100.00
5500;BME280;2772;42.700;23.304;2022-07-06T05:19:32;95160.03;;;22.33;100.00
5500;BME280;2772;42.700;23.304;2022-07-06T05:21:59;95181.88;;;22.51;100.00
5500;BME280;2772;42.700;23.304;2022-07-06T05:24:26;95166.84;;;22.67;100.00
5500;BME280;2772;42.700;23.304;2022-07-06T05:26:53;95173.56;;;22.94;100.00
5500;BME280;2772;42.700;23.304;2022-07-06T05:29:20;95170.91;;;23.19;100.00
5500;BME280;2772;42.700;23.304;2022-07-06T05:31:47;95180.31;;;23.35;100.00
5500;BME280;2772;42.700;23.304;2022-07-06T05:34:13;95178.75;;;23.38;100.00
5500;BME280;2772;42.700;23.304;2022-07-06T05:36:42;95174.44;;;23.26;100.00
5500;BME280;2772;42.700;23.304;2022-07-06T05:39:09;95180.31;;;23.32;100.00
5500;BME280;2772;42.700;23.304;2022-07-06T05:41:36;95183.00;;;23.28;100.00
5500;BME280;2772;42.700;23.304;2022-07-06T05:44:03;95186.41;;;23.01;100.00
5500;BME280;2772;42.700;23.304;2022-07-06T05:46:30;95185.31;;;23.23;100.00
5500;BME280;2772;42.700;23.304;2022-07-06T05:48:57;95199.72;;;23.37;100.00
5500;BME280;2772;42.700;23.304;2022-07-06T05:51:42;95189.63;;;23.38;100.00
5500;BME280;2772;42.700;23.304;2022-07-06T05:54:09;95191.91;;;23.18;100.00
5500;BME280;2772;42.700;23.304;2022-07-06T05:56:36;95195.44;;;23.29;100.00
5500;BME280;2772;42.700;23.304;2022-07-06T05:59:03;95190.03;;;23.43;100.00
5500;BME280;2772;42.700;23.304;2022-07-06T06:01:29;95196.25;;;23.48;100.00
5500;BME280;2772;42.700;23.304;2022-07-06T06:03:56;95197.41;;;23.39;100.00
5500;BME280;2772;42.700;23.304;2022-07-06T06:06:24;95196.25;;;23.37;100.00
5500;BME280;2772;42.700;23.304;2022-07-06T06:08:53;95202.38;;;23.16;100.00
5500;BME280;2772;42.700;23.304;2022-07-06T06:11:20;95202.03;;;23.28;100.00
5500;BME280;2772;42.700;23.304;2022-07-06T06:13:47;95202.00;;;23.25;100.00
5500;BME280;2772;42.700;23.304;2022-07-06T06:16:14;95195.38;;;23.12;100.00
5500;BME280;2772;42.700;23.304;2022-07-06T06:18:42;95195.72;;;23.03;100.00
5500;BME280;2772;42.700;23.304;2022-07-06T06:21:09;95183.69;;;23.08;100.00
5500;BME280;2772;42.700;23.304;2022-07-06T06:23:36;95191.88;;;23.22;100.00
5500;BME280;2772;42.700;23.304;2022-07-06T06:26:04;95186.06;;;23.20;100.00
5500;BME280;2772;42.700;23.304;2022-07-06T06:28:31;95190.75;;;23.26;100.00
5500;BME280;2772;42.700;23.304;2022-07-06T06:30:58;95188.50;;;23.50;100.00
5500;BME280;2772;42.700;23.304;2022-07-06T06:33:25;95188.91;;;23.59;100.00
5500;BME280;2772;42.700;23.304;2022-07-06T06:35:53;95198.63;;;23.74;100.00
5500;BME280;2772;42.700;23.304;2022-07-06T06:38:21;95189.66;;;23.73;100.00
5500;BME280;2772;42.700;23.304;2022-07-06T06:40:51;95188.91;;;23.76;100.00
5500;BME280;2772;42.700;23.304;2022-07-06T06:43:20;95190.84;;;23.76;100.00
5500;BME280;2772;42.700;23.304;2022-07-06T06:45:47;95186.97;;;23.87;100.00
5500;BME280;2772;42.700;23.304;2022-07-06T06:48:14;95181.94;;;24.07;100.00
5500;BME280;2772;42.700;23.304;2022-07-06T06:50:42;95184.25;;;24.22;100.00
5500;BME280;2772;42.700;23.304;2022-07-06T06:53:09;95184.22;;;24.47;100.00
5500;BME280;2772;42.700;23.304;2022-07-06T06:55:36;95188.47;;;24.62;100.00
5500;BME280;2772;42.700;23.304;2022-07-06T06:58:03;95184.16;;;24.75;100.00
5500;BME280;2772;42.700;23.304;2022-07-06T07:00:31;95183.00;;;24.76;100.00
5500;BME280;2772;42.700;23.304;2022-07-06T07:02:58;95179.91;;;24.74;100.00
5500;BME280;2772;42.700;23.304;2022-07-06T07:05:25;95177.97;;;24.67;100.00
5500;BME280;2772;42.700;23.304;2022-07-06T07:07:52;95182.28;;;24.47;100.00
5500;BME280;2772;42.700;23.304;2022-07-06T07:10:20;95187.72;;;24.44;100.00
5500;BME280;2772;42.700;23.304;2022-07-06T07:12:47;95184.22;;;24.47;100.00
5500;BME280;2772;42.700;23.304;2022-07-06T07:15:15;95187.72;;;24.44;100.00
5500;BME280;2772;42.700;23.304;2022-07-06T07:17:43;95187.31;;;24.45;100.00
5500;BME280;2772;42.700;23.304;2022-07-06T07:20:11;95183.09;;;24.27;100.00
5500;BME280;2772;42.700;23.304;2022-07-06T07:22:38;95183.88;;;24.24;100.00
5500;BME280;2772;42.700;23.304;2022-07-06T07:25:06;95174.94;;;24.20;100.00
5500;BME280;2772;42.700;23.304;2022-07-06T07:27:33;95179.19;;;24.28;100.00
5500;BME280;2772;42.700;23.304;2022-07-06T07:29:59;95188.91;;;24.43;100.00
5500;BME280;2772;42.700;23.304;2022-07-06T07:32:26;95185.78;;;24.48;100.00
5500;BME280;2772;42.700;23.304;2022-07-06T07:34:54;95185.41;;;24.32;100.00
5500;BME280;2772;42.700;23.304;2022-07-06T07:37:21;95184.59;;;24.42;100.00
5500;BME280;2772;42.700;23.304;2022-07-06T07:39:48;95176.81;;;24.40;100.00
5500;BME280;2772;42.700;23.304;2022-07-06T07:42:15;95174.50;;;24.46;100.00
5500;BME280;2772;42.700;23.304;2022-07-06T07:44:42;95177.63;;;24.30;100.00
5500;BME280;2772;42.700;23.304;2022-07-06T07:47:09;95173.75;;;24.28;100.00
5500;BME280;2772;42.700;23.304;2022-07-06T07:49:35;95167.91;;;24.15;100.00
5500;BME280;2772;42.700;23.304;2022-07-06T07:52:04;95170.66;;;24.26;100.00
5500;BME280;2772;42.700;23.304;2022-07-06T07:54:31;95174.53;;;24.25;100.00
5500;BME280;2772;42.700;23.304;2022-07-06T07:56:58;95174.13;;;24.33;100.00
5500;BME280;2772;42.700;23.304;2022-07-06T07:59:25;95180.38;;;24.34;100.00
5500;BME280;2772;42.700;23.304;2022-07-06T08:01:52;95162.06;;;24.45;100.00
5500;BME280;2772;42.700;23.304;2022-07-06T08:04:19;95175.66;;;24.59;100.00
5500;BME280;2772;42.700;23.304;2022-07-06T08:06:46;95174.44;;;24.77;100.00
5500;BME280;2772;42.700;23.304;2022-07-06T08:09:14;95170.13;;;24.87;100.00
5500;BME280;2772;42.700;23.304;2022-07-06T08:11:42;95182.97;;;24.86;100.00
5500;BME280;2772;42.700;23.304;2022-07-06T08:14:09;95176.34;;;24.91;100.00
5500;BME280;2772;42.700;23.304;2022-07-06T08:16:35;95172.13;;;24.69;100.00
5500;BME280;2772;42.700;23.304;2022-07-06T08:19:02;95180.25;;;24.83;100.00
5500;BME280;2772;42.700;23.304;2022-07-06T08:21:29;95182.56;;;24.88;100.00
5500;BME280;2772;42.700;23.304;2022-07-06T08:23:56;95174.34;;;25.02;100.00
5500;BME280;2772;42.700;23.304;2022-07-06T08:26:27;95182.91;;;25.04;100.00
5500;BME280;2772;42.700;23.304;2022-07-06T08:28:54;95176.69;;;25.00;100.00
5500;BME280;2772;42.700;23.304;2022-07-06T08:31:21;95184.41;;;25.12;100.00
5500;BME280;2772;42.700;23.304;2022-07-06T08:33:47;95171.56;;;25.13;100.00
5500;BME280;2772;42.700;23.304;2022-07-06T08:36:14;95175.75;;;25.38;100.00
5500;BME280;2772;42.700;23.304;2022-07-06T08:38:41;95176.09;;;25.40;100.00
5500;BME280;2772;42.700;23.304;2022-07-06T08:41:09;95168.22;;;25.53;100.00
5500;BME280;2772;42.700;23.304;2022-07-06T08:43:38;95167.00;;;25.64;100.00
5500;BME280;2772;42.700;23.304;2022-07-06T08:46:06;95171.25;;;25.65;100.00
5500;BME280;2772;42.700;23.304;2022-07-06T08:48:36;95169.31;;;25.69;100.00
5500;BME280;2772;42.700;23.304;2022-07-06T08:51:04;95168.09;;;25.74;100.00
5500;BME280;2772;42.700;23.304;2022-07-06T08:53:32;95174.59;;;25.90;100.00
5500;BME280;2772;42.700;23.304;2022-07-06T08:55:59;95172.56;;;26.05;100.00
5500;BME280;2772;42.700;23.304;2022-07-06T08:58:27;95177.09;;;26.22;100.00
5500;BME280;2772;42.700;23.304;2022-07-06T09:00:56;95184.22;;;26.49;100.00
5500;BME280;2772;42.700;23.304;2022-07-06T09:03:23;95180.88;;;26.76;100.00
5500;BME280;2772;42.700;23.304;2022-07-06T09:05:52;95175.47;;;26.69;100.00
5500;BME280;2772;42.700;23.304;2022-07-06T09:08:19;95179.44;;;26.64;100.00
5500;BME280;2772;42.700;23.304;2022-07-06T09:10:47;95182.84;;;26.72;100.00
5500;BME280;2772;42.700;23.304;2022-07-06T09:13:14;95184.25;;;26.87;100.00
5500;BME280;2772;42.700;23.304;2022-07-06T09:15:41;95179.91;;;26.89;100.00
5500;BME280;2772;42.700;23.304;2022-07-06T09:18:09;95177.63;;;26.84;100.00
5500;BME280;2772;42.700;23.304;2022-07-06T09:20:36;95181.28;;;26.74;100.00
5500;BME280;2772;42.700;23.304;2022-07-06T09:23:05;95171.56;;;26.70;100.00
5500;BME280;2772;42.700;23.304;2022-07-06T09:25:32;95183.38;;;26.56;100.00
5500;BME280;2772;42.700;23.304;2022-07-06T09:28:00;95179.41;;;26.23;100.00
5500;BME280;2772;42.700;23.304;2022-07-06T09:30:28;95177.25;;;26.45;100.00
5500;BME280;2772;42.700;23.304;2022-07-06T09:32:57;95168.72;;;26.39;100.00
5500;BME280;2772;42.700;23.304;2022-07-06T09:35:28;95181.91;;;26.48;100.00
5500;BME280;2772;42.700;23.304;2022-07-06T09:38:03;95178.41;;;26.48;100.00
5500;BME280;2772;42.700;23.304;2022-07-06T09:40:31;95169.56;;;26.74;100.00
5500;BME280;2772;42.700;23.304;2022-07-06T09:43:12;95174.97;;;26.81;100.00
5500;BME280;2772;42.700;23.304;2022-07-06T09:45:41;95177.31;;;26.79;100.00
5500;BME280;2772;42.700;23.304;2022-07-06T09:48:13;95169.25;;;26.68;100.00
5500;BME280;2772;42.700;23.304;2022-07-06T09:50:43;95168.88;;;26.63;100.00
5500;BME280;2772;42.700;23.304;2022-07-06T09:53:10;95172.31;;;26.70;100.00
5500;BME280;2772;42.700;23.304;2022-07-06T09:55:37;95155.28;;;26.56;100.00
5500;BME280;2772;42.700;23.304;2022-07-06T09:58:04;95162.28;;;26.60;100.00
5500;BME280;2772;42.700;23.304;2022-07-06T10:00:31;95163.03;;;26.61;100.00
5500;BME280;2772;42.700;23.304;2022-07-06T10:02:59;95164.69;;;26.51;100.00
5500;BME280;2772;42.700;23.304;2022-07-06T10:05:26;95160.75;;;26.56;100.00
5500;BME280;2772;42.700;23.304;2022-07-06T10:07:58;95158.13;;;26.45;100.00
5500;BME280;2772;42.700;23.304;2022-07-06T10:10:27;95156.97;;;26.42;100.00
5500;BME280;2772;42.700;23.304;2022-07-06T10:12:56;95160.03;;;26.48;100.00
5500;BME280;2772;42.700;23.304;2022-07-06T10:15:25;95161.16;;;26.54;100.00
5500;BME280;2772;42.700;23.304;2022-07-06T10:17:52;95154.00;;;26.26;100.00
5500;BME280;2772;42.700;23.304;2022-07-06T10:20:20;95154.81;;;26.23;100.00
5500;BME280;2772;42.700;23.304;2022-07-06T10:22:47;95150.97;;;26.17;100.00
5500;BME280;2772;42.700;23.304;2022-07-06T10:25:16;95153.81;;;26.07;100.00
5500;BME280;2772;42.700;23.304;2022-07-06T10:27:45;95152.28;;;25.99;100.00
5500;BME280;2772;42.700;23.304;2022-07-06T10:30:13;95149.31;;;25.79;100.00
5500;BME280;2772;42.700;23.304;2022-07-06T10:32:41;95148.19;;;25.77;100.00
5500;BME280;2772;42.700;23.304;2022-07-06T10:35:10;95142.78;;;25.70;100.00
5500;BME280;2772;42.700;23.304;2022-07-06T10:37:37;95168.22;;;25.56;100.00
5500;BME280;2772;42.700;23.304;2022-07-06T10:40:05;95141.78;;;25.46;100.00
5500;BME280;2772;42.700;23.304;2022-07-06T10:42:56;95140.88;;;25.63;100.00
5500;BME280;2772;42.700;23.304;2022-07-06T10:48:34;95138.34;;;25.90;100.00
5500;BME280;2772;42.700;23.304;2022-07-06T10:51:01;95147.47;;;26.17;100.00
5500;BME280;2772;42.700;23.304;2022-07-06T10:53:32;95144.25;;;26.29;100.00
5500;BME280;2772;42.700;23.304;2022-07-06T10:56:02;95138.22;;;26.44;100.00
5500;BME280;2772;42.700;23.304;2022-07-06T10:58:39;95153.41;;;26.49;100.00
5500;BME280;2772;42.700;23.304;2022-07-06T11:01:07;95154.88;;;26.57;100.00
5500;BME280;2772;42.700;23.304;2022-07-06T11:03:44;95142.69;;;26.65;100.00
5500;BME280;2772;42.700;23.304;2022-07-06T11:06:14;95145.00;;;26.70;100.00
5500;BME280;2772;42.700;23.304;2022-07-06T11:08:42;95142.53;;;26.79;100.00
5500;BME280;2772;42.700;23.304;2022-07-06T11:11:12;95141.59;;;26.93;100.00
5500;BME280;2772;42.700;23.304;2022-07-06T11:13:47;95139.75;;;26.83;100.00
5500;BME280;2772;42.700;23.304;2022-07-06T11:16:15;95140.84;;;26.89;100.00
5500;BME280;2772;42.700;23.304;2022-07-06T11:18:46;95139.97;;;26.99;100.00
5500;BME280;2772;42.700;23.304;2022-07-06T11:21:35;95125.88;;;27.00;100.00
5500;BME280;2772;42.700;23.304;2022-07-06T11:24:03;95127.34;;;27.08;100.00
5500;BME280;2772;42.700;23.304;2022-07-06T11:26:30;95128.84;;;27.13;100.00
5500;BME280;2772;42.700;23.304;2022-07-06T11:28:59;95134.50;;;26.99;100.00
5500;BME280;2772;42.700;23.304;2022-07-06T11:31:26;95126.03;;;26.90;100.00
5500;BME280;2772;42.700;23.304;2022-07-06T11:33:54;95128.53;;;27.07;100.00
5500;BME280;2772;42.700;23.304;2022-07-06T11:36:21;95126.28;;;26.99;99.26
5500;BME280;2772;42.700;23.304;2022-07-06T11:38:49;95126.38;;;26.92;97.25
5500;BME280;2772;42.700;23.304;2022-07-06T11:41:17;95118.13;;;26.95;92.42
5500;BME280;2772;42.700;23.304;2022-07-06T11:43:45;95120.56;;;26.90;98.42
5500;BME280;2772;42.700;23.304;2022-07-06T11:46:22;95109.53;;;26.93;100.00
5500;BME280;2772;42.700;23.304;2022-07-06T11:48:50;95103.47;;;26.82;99.44
5500;BME280;2772;42.700;23.304;2022-07-06T11:51:17;95105.31;;;26.89;94.55
5500;BME280;2772;42.700;23.304;2022-07-06T11:53:45;95090.06;;;26.91;100.00
5500;BME280;2772;42.700;23.304;2022-07-06T11:56:13;95103.91;;;26.77;96.70
5500;BME280;2772;42.700;23.304;2022-07-06T11:58:42;95105.97;;;26.70;100.00
5500;BME280;2772;42.700;23.304;2022-07-06T12:01:12;95107.13;;;26.69;100.00
5500;BME280;2772;42.700;23.304;2022-07-06T12:03:41;95091.00;;;26.78;100.00
5500;BME280;2772;42.700;23.304;2022-07-06T12:06:13;95090.28;;;27.04;100.00
5500;BME280;2772;42.700;23.304;2022-07-06T12:08:41;95095.34;;;27.05;94.63
5500;BME280;2772;42.700;23.304;2022-07-06T12:11:09;95097.47;;;26.91;97.00
5500;BME280;2772;42.700;23.304;2022-07-06T12:13:36;95089.09;;;27.05;95.74
5500;BME280;2772;42.700;23.304;2022-07-06T12:16:10;95096.50;;;27.04;96.13
5500;BME280;2772;42.700;23.304;2022-07-06T12:18:37;95097.56;;;27.14;91.67
5500;BME280;2772;42.700;23.304;2022-07-06T12:21:07;95088.63;;;27.10;91.85
5500;BME280;2772;42.700;23.304;2022-07-06T12:23:41;95102.97;;;27.17;92.87
5500;BME280;2772;42.700;23.304;2022-07-06T12:26:08;95100.19;;;26.94;93.19
5500;BME280;2772;42.700;23.304;2022-07-06T12:28:36;95098.22;;;26.95;93.60
5500;BME280;2772;42.700;23.304;2022-07-06T12:31:03;95098.50;;;27.04;95.21
5500;BME280;2772;42.700;23.304;2022-07-06T12:33:30;95100.38;;;26.80;98.16
5500;BME280;2772;42.700;23.304;2022-07-06T12:36:10;95095.06;;;26.66;96.54
5500;BME280;2772;42.700;23.304;2022-07-06T12:38:43;95087.84;;;26.79;97.49
5500;BME280;2772;42.700;23.304;2022-07-06T12:41:11;95081.94;;;26.84;96.83
5500;BME280;2772;42.700;23.304;2022-07-06T12:43:48;95082.94;;;26.97;95.70
5500;BME280;2772;42.700;23.304;2022-07-06T12:46:27;95084.84;;;27.00;97.04
5500;BME280;2772;42.700;23.304;2022-07-06T12:48:55;95076.19;;;27.05;95.45
5500;BME280;2772;42.700;23.304;2022-07-06T12:51:23;95075.31;;;26.85;96.79
5500;BME280;2772;42.700;23.304;2022-07-06T12:53:50;95077.34;;;26.78;96.94
5500;BME280;2772;42.700;23.304;2022-07-06T12:56:17;95072.66;;;26.78;95.39
5500;BME280;2772;42.700;23.304;2022-07-06T12:58:57;95069.66;;;26.69;96.58
5500;BME280;2772;42.700;23.304;2022-07-06T13:01:24;95067.19;;;26.78;98.37
5500;BME280;2772;42.700;23.304;2022-07-06T13:03:55;95076.19;;;26.75;97.06
5500;BME280;2772;42.700;23.304;2022-07-06T13:06:33;95064.41;;;26.82;96.24
5500;BME280;2772;42.700;23.304;2022-07-06T13:09:02;95076.63;;;26.74;91.31
5500;BME280;2772;42.700;23.304;2022-07-06T13:11:29;95055.84;;;26.80;88.67